createdAt,value
2018-11-20T00:00:21.359Z,13.17
2018-11-20T00:02:55.778Z,12.63
2018-11-20T00:05:48.833Z,10.10
2018-11-20T00:08:23.189Z,13.53
2018-11-20T00:11:05.193Z,12.73
2018-11-20T00:14:13.331Z,13.23
2018-11-20T00:17:50.720Z,14.43
2018-11-20T00:20:30.151Z,13.83
2018-11-20T00:23:04.287Z,14.17
2018-11-20T00:25:52.550Z,11.77
2018-11-20T00:28:45.626Z,13.43
2018-11-20T00:33:24.874Z,16.10
2018-11-20T00:35:59.365Z,13.07
2018-11-20T00:38:33.495Z,13.90
2018-11-20T00:41:07.716Z,13.67
2018-11-20T00:45:46.066Z,16.77
2018-11-20T00:50:21.450Z,15.87
2018-11-20T00:53:27.547Z,15.13
2018-11-20T00:57:15.579Z,14.23
2018-11-20T01:00:57.770Z,15.63
2018-11-20T01:03:31.976Z,15.40
2018-11-20T01:06:36.872Z,14.20
2018-11-20T01:09:15.222Z,14.07
2018-11-20T01:11:53.315Z,15.70
2018-11-20T01:14:29.433Z,12.97
2018-11-20T01:17:03.627Z,14.97
2018-11-20T01:19:45.763Z,13.43
2018-11-20T01:22:20.041Z,13.37
2018-11-20T01:25:09.949Z,14.00
2018-11-20T01:29:46.189Z,14.47
2018-11-20T01:32:24.468Z,15.33
2018-11-20T01:35:04.811Z,13.57
2018-11-20T01:37:38.839Z,15.07
2018-11-20T01:42:16.637Z,13.87
2018-11-20T01:44:50.758Z,15.47
2018-11-20T01:49:25.821Z,12.90
2018-11-20T01:51:59.537Z,12.70
2018-11-20T01:54:43.432Z,14.17
2018-11-20T01:57:49.732Z,15.53
2018-11-20T02:01:25.804Z,12.20
2018-11-20T02:04:10.798Z,14.07
2018-11-20T02:06:45.075Z,14.30
2018-11-20T02:09:19.139Z,13.50
2018-11-20T02:12:11.172Z,15.00
2018-11-20T02:14:45.102Z,12.53
2018-11-20T02:19:25.259Z,15.67
2018-11-20T02:22:15.181Z,15.00
2018-11-20T02:24:49.193Z,13.80
2018-11-20T02:27:24.234Z,14.10
2018-11-20T02:31:01.139Z,15.07
2018-11-20T02:33:37.113Z,15.90
2018-11-20T02:36:13.579Z,12.17
2018-11-20T02:40:48.720Z,14.07
2018-11-20T02:43:24.717Z,12.83
2018-11-20T02:48:06.047Z,14.80
2018-11-20T02:50:42.093Z,13.27
2018-11-20T02:53:16.183Z,13.37
2018-11-20T02:55:50.362Z,17.07
2018-11-20T02:58:28.191Z,13.30
2018-11-20T03:01:06.227Z,13.27
2018-11-20T03:03:40.274Z,14.77
2018-11-20T03:06:13.321Z,13.33
2018-11-20T03:08:46.461Z,14.73
2018-11-20T03:11:35.510Z,13.17
2018-11-20T03:15:06.790Z,13.07
2018-11-20T03:19:42.923Z,13.80
2018-11-20T03:22:16.843Z,13.30
2018-11-20T03:24:55.815Z,13.23
2018-11-20T03:27:29.959Z,14.83
2018-11-20T03:31:08.563Z,14.90
2018-11-20T03:35:45.923Z,12.83
2018-11-20T03:38:34.961Z,14.50
2018-11-20T03:42:06.150Z,14.30
2018-11-20T03:45:44.309Z,13.70
2018-11-20T03:50:23.223Z,13.90
2018-11-20T03:53:15.361Z,14.03
2018-11-20T03:55:52.352Z,14.50
2018-11-20T03:58:28.297Z,17.07
2018-11-20T04:01:08.338Z,15.50
2018-11-20T04:03:43.351Z,13.30
2018-11-20T04:06:21.345Z,14.93
2018-11-20T04:10:59.182Z,15.33
2018-11-20T04:13:35.121Z,12.93
2018-11-20T04:16:09.014Z,15.40
2018-11-20T04:18:50.122Z,17.20
2018-11-20T04:21:24.034Z,17.83
2018-11-20T04:23:58.122Z,15.27
2018-11-20T04:27:35.083Z,16.17
2018-11-20T04:30:35.801Z,15.60
2018-11-20T04:33:20.596Z,16.23
2018-11-20T04:35:53.661Z,15.93
2018-11-20T04:38:29.699Z,16.60
2018-11-20T04:41:03.795Z,12.80
2018-11-20T04:43:46.989Z,13.20
2018-11-20T04:46:21.344Z,15.87
2018-11-20T04:49:57.663Z,15.27
2018-11-20T04:52:41.566Z,15.93
2018-11-20T04:57:19.745Z,14.27
2018-11-20T04:59:53.947Z,15.43
2018-11-20T05:04:29.226Z,16.23
2018-11-20T05:07:22.173Z,18.93
2018-11-20T05:11:58.362Z,16.17
2018-11-20T05:14:46.738Z,16.77
2018-11-20T05:17:20.922Z,13.80
2018-11-20T05:20:05.843Z,13.27
2018-11-20T05:22:40.029Z,15.37
2018-11-20T05:25:17.259Z,16.37
2018-11-20T05:29:57.815Z,15.50
2018-11-20T05:33:02.897Z,17.30
2018-11-20T05:35:37.298Z,16.77
2018-11-20T05:38:19.193Z,16.50
2018-11-20T05:40:52.581Z,19.67
2018-11-20T05:43:25.656Z,17.53
2018-11-20T05:45:59.733Z,17.87
2018-11-20T05:50:39.751Z,16.83
2018-11-20T05:53:15.609Z,15.80
2018-11-20T05:55:54.614Z,18.53
2018-11-20T05:58:32.855Z,18.90
2018-11-20T06:01:14.669Z,20.27
2018-11-20T06:03:48.679Z,17.67
2018-11-20T06:06:26.578Z,18.77
2018-11-20T06:09:04.517Z,18.37
2018-11-20T06:13:42.789Z,21.67
2018-11-20T06:17:21.018Z,20.40
2018-11-20T06:21:56.222Z,23.37
2018-11-20T06:25:01.382Z,22.80
2018-11-20T06:27:35.430Z,24.03
2018-11-20T06:30:29.453Z,22.10
2018-11-20T06:35:04.723Z,22.37
2018-11-20T06:37:52.831Z,23.17
2018-11-20T06:40:26.874Z,26.50
2018-11-20T06:43:00.978Z,24.67
2018-11-20T06:45:48.935Z,27.07
2018-11-20T06:48:31.537Z,25.07
2018-11-20T06:51:05.534Z,24.73
2018-11-20T06:53:43.534Z,23.83
2018-11-20T06:56:17.684Z,25.97
2018-11-20T06:59:09.888Z,24.27
2018-11-20T07:01:44.693Z,23.37
2018-11-20T07:06:20.620Z,25.97
2018-11-20T07:09:03.652Z,21.97
2018-11-20T07:13:43.713Z,21.33
2018-11-20T07:16:35.041Z,22.60
2018-11-20T07:19:14.057Z,23.00
2018-11-20T07:21:48.077Z,21.20
2018-11-20T07:24:29.102Z,20.27
2018-11-20T07:29:04.255Z,21.37
2018-11-20T07:31:38.479Z,22.00
2018-11-20T07:34:15.513Z,20.13
2018-11-20T07:37:06.890Z,23.80
2018-11-20T07:39:47.898Z,21.17
2018-11-20T07:42:37.090Z,21.63
2018-11-20T07:45:15.883Z,21.30
2018-11-20T07:47:54.078Z,20.17
2018-11-20T07:52:31.098Z,21.23
2018-11-20T07:55:04.251Z,22.23
2018-11-20T07:59:42.279Z,21.00
2018-11-20T08:02:16.340Z,21.70
2018-11-20T08:04:52.346Z,25.00
2018-11-20T08:07:31.621Z,25.60
2018-11-20T08:10:15.704Z,19.50
2018-11-20T08:12:53.717Z,22.23
2018-11-20T08:15:26.952Z,24.50
2018-11-20T08:18:05.053Z,25.03
2018-11-20T08:20:41.980Z,22.10
2018-11-20T08:23:15.989Z,25.80
2018-11-20T08:27:56.257Z,23.27
2018-11-20T08:30:30.801Z,17.90
2018-11-20T08:33:04.934Z,21.43
2018-11-20T08:35:43.982Z,22.33
2018-11-20T08:38:17.135Z,21.67
2018-11-20T08:40:51.176Z,21.67
2018-11-20T08:45:27.146Z,21.00
2018-11-20T08:48:03.248Z,20.43
2018-11-20T08:50:41.716Z,21.47
2018-11-20T08:55:16.873Z,29.43
2018-11-20T08:58:53.921Z,21.07
2018-11-20T09:01:58.016Z,24.90
2018-11-20T09:04:32.083Z,21.17
2018-11-20T09:07:14.065Z,21.50
2018-11-20T09:11:55.100Z,20.23
2018-11-20T09:15:03.286Z,22.83
2018-11-20T09:17:36.499Z,19.70
2018-11-20T09:22:13.881Z,21.10
2018-11-20T09:26:56.192Z,21.87
2018-11-20T09:29:30.394Z,18.83
2018-11-20T09:32:04.422Z,19.93
2018-11-20T09:34:50.986Z,23.43
2018-11-20T09:37:24.174Z,21.17
2018-11-20T09:41:00.986Z,21.87
2018-11-20T09:43:43.447Z,21.40
2018-11-20T09:46:23.453Z,21.63
2018-11-20T09:51:02.563Z,18.47
2018-11-20T09:53:41.627Z,20.20
2018-11-20T09:58:18.585Z,21.03
2018-11-20T10:00:52.655Z,18.43
2018-11-20T10:03:30.740Z,16.63
2018-11-20T10:06:11.393Z,19.43
2018-11-20T10:09:25.813Z,19.30
2018-11-20T10:13:04.663Z,24.47
2018-11-20T10:17:44.550Z,17.77
2018-11-20T10:22:20.462Z,17.73
2018-11-20T10:24:57.288Z,19.33
2018-11-20T10:29:33.112Z,20.07
2018-11-20T10:33:06.005Z,17.90
2018-11-20T10:37:42.021Z,16.30
2018-11-20T10:40:25.872Z,21.40
2018-11-20T10:43:13.894Z,21.23
2018-11-20T10:45:47.956Z,21.10
2018-11-20T10:48:55.833Z,19.87
2018-11-20T10:51:46.855Z,20.77
2018-11-20T10:54:21.173Z,20.10
2018-11-20T10:56:55.299Z,21.60
2018-11-20T11:00:28.298Z,22.03
2018-11-20T11:03:02.311Z,20.23
2018-11-20T11:05:37.504Z,21.20
2018-11-20T11:08:15.517Z,19.80
2018-11-20T11:10:49.580Z,22.40
2018-11-20T11:13:54.539Z,21.20
2018-11-20T11:18:34.772Z,18.80
2018-11-20T11:21:13.523Z,19.10
2018-11-20T11:24:50.594Z,20.17
2018-11-20T11:29:26.664Z,19.50
2018-11-20T11:32:36.215Z,18.83
2018-11-20T11:35:43.152Z,18.40
2018-11-20T11:39:25.222Z,22.30
2018-11-20T11:42:30.242Z,19.97
2018-11-20T11:45:14.695Z,20.33
2018-11-20T11:49:51.036Z,20.00
2018-11-20T11:54:29.101Z,18.33
2018-11-20T11:57:06.424Z,19.37
2018-11-20T12:00:14.641Z,20.57
